Nearby METAR Reports

 

KSJC - San Jose, California, USA
Distance from station: NE 14km
Updated: 18/05/2024 19:53
Few Clouds
Few Clouds
 Wind from E
Wind: E 7 km/h
Temperature: 21°C
Dew Point: 11°C
Humidity: 53%
Barometer: 1014.6 hPa
Clouds: Few Clouds
Visibility: 16 km
Cloud details: Few Clouds 914 m
2024/05/18 17:53 KSJC 181753Z 10004KT 10SM FEW030 21/11 A2996 RMK AO2 SLP143 T02060111 10206 20139 51004
KNUQ - Moffett Nas/Mtn, California, USA
Distance from station: N 14km
Updated: 18/05/2024 20:15
Clear
Clear
 Wind from N
Wind: N 13 km/h
Temperature: 18°C
Dew Point: 11°C
Humidity: 64%
Barometer: 1014.6 hPa
Clouds: Clear
Visibility: 16 km
2024/05/18 18:15 KNUQ 181815Z AUTO 35007KT 10SM CLR 18/11 A2996 RMK AO2
 
KPAO - Palo Alto, California, USA
Distance from station: NNW 23km
Updated: 18/05/2024 19:47
Few Clouds
Few Clouds
 Wind from N
Wind: N 17 km/h
Temperature: 17°C
Dew Point: 12°C
Humidity: 73%
Barometer: 1014.9 hPa
Clouds: Few Clouds
Visibility: 16 km
Cloud details: Few Clouds 610 m
2024/05/18 17:47 KPAO 181747Z 35009KT 10SM FEW020 17/12 A2997
KRHV - San Jose/Reid, California, USA
Distance from station: ENE 19km
Updated: 18/05/2024 19:55
Clear
Clear
 Wind from SSW
Wind: SSW 17 km/h
Temperature: 19°C
Dew Point: 11°C
Humidity: 60%
Barometer: 1014.6 hPa
Clouds: Clear
Visibility: 16 km
2024/05/18 17:55 KRHV 181755Z 20009KT 10SM SKC 19/11 A2996
 
KOAK - Oakland, California, USA
Distance from station: NNW 50km
Updated: 18/05/2024 19:53
Mostly cloudy
Mostly cloudy
 Wind from SSW
Wind: SSW 7 km/h
Temperature: 16°C
Dew Point: 11°C
Humidity: 72%
Barometer: 1015.2 hPa
Clouds: Mostly cloudy
Visibility: 16 km
Cloud details: Few Clouds 305 m
Mostly cloudy 549 m
2024/05/18 17:53 KOAK 181753Z 20004KT 10SM FEW010 BKN018 16/11 A2998 RMK AO2 SLP152 T01560106 10161 20133 52007
KSQL - San Carlos Airpo, California, USA
Distance from station: NW 34km
Updated: 18/05/2024 19:50
Few Clouds
Few Clouds
 Wind from W
Wind: W 19 km/h
Temperature: 17°C
Dew Point: 11°C
Humidity: 68%
Barometer: 1014.9 hPa
Clouds: Few Clouds
Visibility: 16 km
Cloud details: Few Clouds 701 m
2024/05/18 17:50 KSQL 181750Z 27010KT 10SM FEW023 17/11 A2997
 
KSFO - San Francisco, California, USA
Distance from station: NW 49km
Updated: 18/05/2024 19:56
Partly cloudy
Partly cloudy
 Wind from S
Wind: S 20 km/h
Temperature: 18°C
Dew Point: 11°C
Humidity: 64%
Barometer: 1014.9 hPa
Clouds: Partly cloudy
Visibility: 16 km
Cloud details: Few Clouds 244 m
Partly cloudy 701 m
2024/05/18 17:56 KSFO 181756Z 18011KT 10SM FEW008 SCT023 18/11 A2997 RMK AO2 SLP148 T01780106 10178 20128 53007
KE16 - San Martin, California, USA
Distance from station: ESE 43km
Updated: 18/05/2024 20:15
Overcast
Overcast
 Wind from SE
Wind: SE 15 km/h
Temperature: 15°C
Dew Point: 10°C
Humidity: 72%
Barometer: 1016.3 hPa
Clouds: Overcast
Visibility: 16 km
Cloud details: Overcast 579 m
2024/05/18 18:15 KE16 181815Z AUTO 14008KT 10SM OVC019 15/10 A3001 RMK AO2
 
KWVI - Watsonville, California, USA
Distance from station: SSE 44km
Updated: 18/05/2024 19:53
Overcast
Overcast
 Wind from W
Wind: W 15 km/h
Temperature: 13°C
Dew Point: 11°C
Humidity: 88%
Barometer: 1016.6 hPa
Clouds: Overcast
Visibility: 16 km
Cloud details: Overcast 396 m
2024/05/18 17:53 KWVI 181753Z AUTO 26008KT 10SM OVC013 13/11 A3002 RMK AO2 SLP165 60002 T01330106 10139 20111 51003
KHAF - Half Moon Bay, California, USA
Distance from station: WNW 50km
Updated: 18/05/2024 20:15
Overcast
Overcast
 Wind from S
Wind: S 26 km/h
Temperature: 13°C
Dew Point: 12°C
Humidity: 94%
Barometer: 1015.9 hPa
Clouds: Overcast
Visibility: 14 km
Cloud details: Overcast 549 m
2024/05/18 18:15 KHAF 181815Z AUTO 19014KT 9SM OVC018 13/12 A3000 RMK AO2
 
KHWD - Hayward, California, USA
Distance from station: N 44km
Updated: 18/05/2024 19:54
Partly cloudy
Partly cloudy
 Wind from W
Wind: W 15 km/h
Temperature: 18°C
Dew Point: 11°C
Humidity: 64%
Barometer: 1014.9 hPa
Clouds: Partly cloudy
Visibility: 16 km
Cloud details: Partly cloudy 518 m
2024/05/18 17:54 KHWD 181754Z 28008KT 230V310 10SM SCT017 18/11 A2997 RMK AO2 SLP157 T01830111 10183 20144 53007
KLVK - Livermore, California, USA
Distance from station: NNE 51km
Updated: 18/05/2024 19:53
Clear
Clear
 Wind from WNW
Wind: WNW 13 km/h
Temperature: 20°C
Dew Point: 12°C
Humidity: 60%
Barometer: 1013.9 hPa
Clouds: Clear
Visibility: 16 km
2024/05/18 17:53 KLVK 181753Z 30007KT 10SM CLR 20/12 A2994 RMK AO2 SLP137 T02000117 10200 20128 52004